Página principal
METAR-TAF:

METAR-TAF

Aeroportos :

Aeroporto Internacional de Las Vegas

Las Vegas, Nevada, Estados Unidos

latitude: 36-04-44N, longitude: 115-09-19W, altura: 663 m

Observação actual do tempo

O boletim foi feito há 44 minutos, às 13:56 UTC
Vento 4 kt de su-sudoeste
Temperatura 7°C
Humidade 70%
Pressão 1029 hPa
Visibilidade: 16.1 km
Encobertoa uma altura de 25000 ft

METAR: KLAS 191356Z 20004KT 10SM OVC250 07/02 A3038 RMK AO2 SLP284 T00720017

Hora: 06:40 (14:40 UTC)

Previsão

O boletim foi feito há 6 minutos, às 14:34 UTC
Previsão válida de 19 às 15 UTC a 20 às 18 UTC
Vento 4 kt com direcção variável
Visibilidade: 10 km
Nuvens fragmentadasa uma altura de 25000 ft
A partir de 20 às 0300 UTC
Vento 5 kt de sudoeste
Visibilidade: 10 km
Nuvens fragmentadasa uma altura de 25000 ft

TAF: KLAS 191434Z 1915/2018 VRB04KT P6SM BKN250 FM200300 23005KT P6SM BKN250

Observações e previsões do tempo de mais de 4000 aeroportos (mensagens METAR e TAF).

As estações disponíveis são os pontos amarelos e vermelhos sobre o mapa.

Mova o rato sobre o mapa para ver o nome da estação.

Depois clique no ponto para visualizar as observações e previsões meteorológicas.

Para alterar o mapa : clique nos botões verdes com uma cruz preta para aumentar o zoom; no botão verde com uma pitada de zoom; ou nas setas verdes para mapas adjacentes.


METAR-TAF: